sensor_id;sensor_type;location;lat;lon;timestamp;P1;durP1;ratioP1;P2;durP2;ratioP2
27576;SDS011;15011;53.380;10.034;2023-07-31T00:00:16;2.87;;;1.80;;
27576;SDS011;15011;53.380;10.034;2023-07-31T00:05:17;2.80;;;1.93;;
27576;SDS011;15011;53.380;10.034;2023-07-31T00:10:17;3.67;;;1.77;;
27576;SDS011;15011;53.380;10.034;2023-07-31T00:15:18;6.13;;;1.77;;
27576;SDS011;15011;53.380;10.034;2023-07-31T00:20:18;6.53;;;2.97;;
27576;SDS011;15011;53.380;10.034;2023-07-31T00:25:19;5.93;;;2.10;;
27576;SDS011;15011;53.380;10.034;2023-07-31T00:30:19;5.50;;;1.60;;
27576;SDS011;15011;53.380;10.034;2023-07-31T00:35:19;3.67;;;1.90;;
27576;SDS011;15011;53.380;10.034;2023-07-31T00:40:20;4.13;;;1.77;;
27576;SDS011;15011;53.380;10.034;2023-07-31T00:45:21;4.60;;;1.83;;
27576;SDS011;15011;53.380;10.034;2023-07-31T00:50:24;3.35;;;1.50;;
27576;SDS011;15011;53.380;10.034;2023-07-31T00:55:25;5.10;;;1.80;;
27576;SDS011;15011;53.380;10.034;2023-07-31T01:00:25;3.17;;;1.80;;
27576;SDS011;15011;53.380;10.034;2023-07-31T01:05:49;5.00;;;2.67;;
27576;SDS011;15011;53.380;10.034;2023-07-31T01:10:59;8.52;;;2.30;;
27576;SDS011;15011;53.380;10.034;2023-07-31T01:16:02;4.45;;;1.90;;
27576;SDS011;15011;53.380;10.034;2023-07-31T01:21:06;6.28;;;1.85;;
27576;SDS011;15011;53.380;10.034;2023-07-31T01:26:12;6.97;;;1.92;;
27576;SDS011;15011;53.380;10.034;2023-07-31T01:31:23;4.88;;;2.13;;
27576;SDS011;15011;53.380;10.034;2023-07-31T01:36:24;7.70;;;2.50;;
27576;SDS011;15011;53.380;10.034;2023-07-31T01:41:25;5.15;;;2.05;;
27576;SDS011;15011;53.380;10.034;2023-07-31T01:46:25;5.72;;;2.28;;
27576;SDS011;15011;53.380;10.034;2023-07-31T01:51:26;6.05;;;2.55;;
27576;SDS011;15011;53.380;10.034;2023-07-31T01:56:26;5.13;;;2.40;;
27576;SDS011;15011;53.380;10.034;2023-07-31T02:06:27;5.33;;;2.30;;
27576;SDS011;15011;53.380;10.034;2023-07-31T02:26:29;2.67;;;2.10;;
27576;SDS011;15011;53.380;10.034;2023-07-31T02:31:29;4.83;;;2.67;;
27576;SDS011;15011;53.380;10.034;2023-07-31T02:36:29;7.13;;;2.60;;
27576;SDS011;15011;53.380;10.034;2023-07-31T02:41:30;11.37;;;3.17;;
27576;SDS011;15011;53.380;10.034;2023-07-31T02:46:30;5.32;;;3.05;;
27576;SDS011;15011;53.380;10.034;2023-07-31T02:56:32;8.77;;;2.87;;
27576;SDS011;15011;53.380;10.034;2023-07-31T03:01:32;7.60;;;2.83;;
27576;SDS011;15011;53.380;10.034;2023-07-31T03:06:32;4.23;;;2.53;;
27576;SDS011;15011;53.380;10.034;2023-07-31T03:11:33;6.20;;;2.80;;
27576;SDS011;15011;53.380;10.034;2023-07-31T03:21:34;4.87;;;2.50;;
27576;SDS011;15011;53.380;10.034;2023-07-31T03:26:34;4.90;;;3.20;;
27576;SDS011;15011;53.380;10.034;2023-07-31T03:31:36;5.50;;;2.97;;
27576;SDS011;15011;53.380;10.034;2023-07-31T03:36:36;10.93;;;4.37;;
27576;SDS011;15011;53.380;10.034;2023-07-31T03:41:37;6.07;;;4.13;;
27576;SDS011;15011;53.380;10.034;2023-07-31T03:46:37;9.97;;;4.43;;
27576;SDS011;15011;53.380;10.034;2023-07-31T03:56:38;5.33;;;4.33;;
27576;SDS011;15011;53.380;10.034;2023-07-31T04:01:38;6.63;;;4.37;;
27576;SDS011;15011;53.380;10.034;2023-07-31T04:06:39;10.83;;;5.10;;
27576;SDS011;15011;53.380;10.034;2023-07-31T04:11:39;6.53;;;4.70;;
27576;SDS011;15011;53.380;10.034;2023-07-31T04:16:40;6.47;;;4.20;;
27576;SDS011;15011;53.380;10.034;2023-07-31T04:21:40;11.17;;;4.80;;
27576;SDS011;15011;53.380;10.034;2023-07-31T04:26:41;4.83;;;4.13;;
27576;SDS011;15011;53.380;10.034;2023-07-31T04:31:41;7.50;;;4.88;;
27576;SDS011;15011;53.380;10.034;2023-07-31T04:36:41;7.57;;;4.17;;
27576;SDS011;15011;53.380;10.034;2023-07-31T04:41:42;5.83;;;4.43;;
27576;SDS011;15011;53.380;10.034;2023-07-31T04:46:42;5.93;;;3.87;;
27576;SDS011;15011;53.380;10.034;2023-07-31T04:51:43;6.63;;;4.63;;
27576;SDS011;15011;53.380;10.034;2023-07-31T05:01:43;4.33;;;3.40;;
27576;SDS011;15011;53.380;10.034;2023-07-31T05:06:45;5.68;;;3.50;;
27576;SDS011;15011;53.380;10.034;2023-07-31T05:11:45;5.70;;;3.35;;
27576;SDS011;15011;53.380;10.034;2023-07-31T05:21:46;6.67;;;4.17;;
27576;SDS011;15011;53.380;10.034;2023-07-31T05:31:47;7.07;;;5.20;;
27576;SDS011;15011;53.380;10.034;2023-07-31T05:36:47;5.17;;;3.57;;
27576;SDS011;15011;53.380;10.034;2023-07-31T05:41:48;5.73;;;4.43;;
27576;SDS011;15011;53.380;10.034;2023-07-31T05:46:48;6.57;;;4.90;;
27576;SDS011;15011;53.380;10.034;2023-07-31T05:51:49;6.70;;;4.38;;
27576;SDS011;15011;53.380;10.034;2023-07-31T06:01:49;5.82;;;4.47;;
27576;SDS011;15011;53.380;10.034;2023-07-31T06:06:50;5.93;;;3.90;;
27576;SDS011;15011;53.380;10.034;2023-07-31T06:16:50;4.53;;;3.40;;
27576;SDS011;15011;53.380;10.034;2023-07-31T06:21:51;3.40;;;2.80;;
27576;SDS011;15011;53.380;10.034;2023-07-31T06:26:51;4.67;;;3.40;;
27576;SDS011;15011;53.380;10.034;2023-07-31T06:31:52;4.10;;;3.10;;
27576;SDS011;15011;53.380;10.034;2023-07-31T06:36:52;4.27;;;3.43;;
27576;SDS011;15011;53.380;10.034;2023-07-31T06:41:53;3.00;;;2.67;;
27576;SDS011;15011;53.380;10.034;2023-07-31T06:46:53;4.35;;;3.05;;
27576;SDS011;15011;53.380;10.034;2023-07-31T06:51:53;4.10;;;2.10;;
27576;SDS011;15011;53.380;10.034;2023-07-31T06:56:54;2.42;;;2.22;;
27576;SDS011;15011;53.380;10.034;2023-07-31T07:01:54;2.73;;;2.43;;
27576;SDS011;15011;53.380;10.034;2023-07-31T07:06:55;3.07;;;2.77;;
27576;SDS011;15011;53.380;10.034;2023-07-31T07:11:55;1.97;;;1.77;;
27576;SDS011;15011;53.380;10.034;2023-07-31T07:16:56;2.37;;;2.17;;
27576;SDS011;15011;53.380;10.034;2023-07-31T07:21:56;1.60;;;1.50;;
27576;SDS011;15011;53.380;10.034;2023-07-31T07:26:57;1.70;;;1.60;;
27576;SDS011;15011;53.380;10.034;2023-07-31T07:31:57;1.50;;;1.40;;
27576;SDS011;15011;53.380;10.034;2023-07-31T07:36:57;1.60;;;1.50;;
27576;SDS011;15011;53.380;10.034;2023-07-31T07:41:58;2.42;;;1.20;;
27576;SDS011;15011;53.380;10.034;2023-07-31T07:46:58;1.47;;;1.37;;
27576;SDS011;15011;53.380;10.034;2023-07-31T07:51:59;1.55;;;1.45;;
27576;SDS011;15011;53.380;10.034;2023-07-31T07:56:59;1.70;;;1.40;;
27576;SDS011;15011;53.380;10.034;2023-07-31T08:02:00;1.07;;;1.00;;
27576;SDS011;15011;53.380;10.034;2023-07-31T08:07:02;1.05;;;0.90;;
27576;SDS011;15011;53.380;10.034;2023-07-31T08:12:02;1.40;;;1.20;;
27576;SDS011;15011;53.380;10.034;2023-07-31T08:17:04;1.10;;;1.00;;
27576;SDS011;15011;53.380;10.034;2023-07-31T08:22:04;0.80;;;0.80;;
27576;SDS011;15011;53.380;10.034;2023-07-31T08:27:05;0.70;;;0.70;;
27576;SDS011;15011;53.380;10.034;2023-07-31T08:32:06;0.75;;;0.70;;
27576;SDS011;15011;53.380;10.034;2023-07-31T08:37:06;0.53;;;0.53;;
27576;SDS011;15011;53.380;10.034;2023-07-31T08:42:07;0.70;;;0.70;;
27576;SDS011;15011;53.380;10.034;2023-07-31T08:47:09;0.40;;;0.40;;
27576;SDS011;15011;53.380;10.034;2023-07-31T08:52:10;0.40;;;0.40;;
27576;SDS011;15011;53.380;10.034;2023-07-31T08:57:11;0.85;;;0.40;;
27576;SDS011;15011;53.380;10.034;2023-07-31T09:02:12;0.35;;;0.35;;
27576;SDS011;15011;53.380;10.034;2023-07-31T09:07:13;0.30;;;0.30;;
27576;SDS011;15011;53.380;10.034;2023-07-31T09:12:14;0.98;;;0.40;;
27576;SDS011;15011;53.380;10.034;2023-07-31T09:17:15;0.30;;;0.30;;
27576;SDS011;15011;53.380;10.034;2023-07-31T09:22:15;0.30;;;0.30;;
27576;SDS011;15011;53.380;10.034;2023-07-31T09:27:16;0.22;;;0.22;;
27576;SDS011;15011;53.380;10.034;2023-07-31T09:32:16;0.40;;;0.40;;
27576;SDS011;15011;53.380;10.034;2023-07-31T09:37:17;1.50;;;0.60;;
27576;SDS011;15011;53.380;10.034;2023-07-31T09:42:26;3.10;;;2.13;;
27576;SDS011;15011;53.380;10.034;2023-07-31T09:47:26;6.07;;;2.90;;
27576;SDS011;15011;53.380;10.034;2023-07-31T09:52:27;7.65;;;3.70;;
27576;SDS011;15011;53.380;10.034;2023-07-31T09:57:27;8.32;;;4.45;;
27576;SDS011;15011;53.380;10.034;2023-07-31T10:02:28;10.00;;;5.20;;
27576;SDS011;15011;53.380;10.034;2023-07-31T10:07:30;14.10;;;5.10;;
27576;SDS011;15011;53.380;10.034;2023-07-31T10:12:31;12.13;;;4.97;;
27576;SDS011;15011;53.380;10.034;2023-07-31T10:17:33;8.25;;;4.72;;
27576;SDS011;15011;53.380;10.034;2023-07-31T10:22:35;12.85;;;6.30;;
27576;SDS011;15011;53.380;10.034;2023-07-31T10:27:35;11.70;;;5.07;;
27576;SDS011;15011;53.380;10.034;2023-07-31T10:32:38;16.83;;;7.97;;
27576;SDS011;15011;53.380;10.034;2023-07-31T10:37:41;15.95;;;6.93;;
27576;SDS011;15011;53.380;10.034;2023-07-31T10:42:49;14.43;;;5.90;;
27576;SDS011;15011;53.380;10.034;2023-07-31T10:48:15;10.63;;;5.72;;
27576;SDS011;15011;53.380;10.034;2023-07-31T10:53:32;10.05;;;5.88;;
27576;SDS011;15011;53.380;10.034;2023-07-31T10:58:33;10.73;;;5.15;;
27576;SDS011;15011;53.380;10.034;2023-07-31T11:03:56;9.55;;;5.30;;
27576;SDS011;15011;53.380;10.034;2023-07-31T11:08:57;12.60;;;5.75;;
27576;SDS011;15011;53.380;10.034;2023-07-31T11:13:57;8.60;;;4.53;;
27576;SDS011;15011;53.380;10.034;2023-07-31T11:18:57;8.23;;;4.87;;
27576;SDS011;15011;53.380;10.034;2023-07-31T11:23:58;5.60;;;3.50;;
27576;SDS011;15011;53.380;10.034;2023-07-31T11:28:59;7.68;;;3.78;;
27576;SDS011;15011;53.380;10.034;2023-07-31T11:34:08;6.35;;;3.45;;
27576;SDS011;15011;53.380;10.034;2023-07-31T11:39:09;6.93;;;3.80;;
27576;SDS011;15011;53.380;10.034;2023-07-31T11:44:10;4.90;;;3.10;;
27576;SDS011;15011;53.380;10.034;2023-07-31T11:49:11;8.17;;;3.67;;
27576;SDS011;15011;53.380;10.034;2023-07-31T11:54:11;4.82;;;2.40;;
27576;SDS011;15011;53.380;10.034;2023-07-31T11:59:13;4.97;;;2.35;;
27576;SDS011;15011;53.380;10.034;2023-07-31T12:04:14;4.43;;;2.43;;
27576;SDS011;15011;53.380;10.034;2023-07-31T12:09:14;5.07;;;2.00;;
27576;SDS011;15011;53.380;10.034;2023-07-31T12:14:22;2.90;;;1.52;;
27576;SDS011;15011;53.380;10.034;2023-07-31T12:19:27;2.08;;;1.90;;
27576;SDS011;15011;53.380;10.034;2023-07-31T12:24:29;2.38;;;1.80;;
27576;SDS011;15011;53.380;10.034;2023-07-31T12:29:33;2.47;;;1.53;;
27576;SDS011;15011;53.380;10.034;2023-07-31T12:34:41;2.08;;;1.73;;
27576;SDS011;15011;53.380;10.034;2023-07-31T12:39:44;2.85;;;1.63;;
27576;SDS011;15011;53.380;10.034;2023-07-31T12:44:45;2.20;;;1.50;;
27576;SDS011;15011;53.380;10.034;2023-07-31T12:49:45;2.27;;;1.10;;
27576;SDS011;15011;53.380;10.034;2023-07-31T12:54:46;1.80;;;1.43;;
27576;SDS011;15011;53.380;10.034;2023-07-31T12:59:46;1.60;;;1.13;;
27576;SDS011;15011;53.380;10.034;2023-07-31T13:04:47;2.40;;;1.50;;
27576;SDS011;15011;53.380;10.034;2023-07-31T13:09:47;1.98;;;1.80;;
27576;SDS011;15011;53.380;10.034;2023-07-31T13:14:48;2.03;;;1.35;;
27576;SDS011;15011;53.380;10.034;2023-07-31T13:19:48;2.13;;;1.50;;
27576;SDS011;15011;53.380;10.034;2023-07-31T13:24:49;4.97;;;1.40;;
27576;SDS011;15011;53.380;10.034;2023-07-31T13:29:50;1.63;;;1.10;;
27576;SDS011;15011;53.380;10.034;2023-07-31T13:34:51;1.60;;;1.27;;
27576;SDS011;15011;53.380;10.034;2023-07-31T13:39:51;2.00;;;1.50;;
27576;SDS011;15011;53.380;10.034;2023-07-31T13:44:52;1.70;;;1.30;;
27576;SDS011;15011;53.380;10.034;2023-07-31T13:49:52;1.90;;;1.08;;
27576;SDS011;15011;53.380;10.034;2023-07-31T13:54:53;2.93;;;1.10;;
27576;SDS011;15011;53.380;10.034;2023-07-31T13:59:53;1.77;;;1.23;;
27576;SDS011;15011;53.380;10.034;2023-07-31T14:04:54;1.20;;;1.10;;
27576;SDS011;15011;53.380;10.034;2023-07-31T14:09:54;1.20;;;1.10;;
27576;SDS011;15011;53.380;10.034;2023-07-31T14:14:55;1.73;;;1.40;;
27576;SDS011;15011;53.380;10.034;2023-07-31T14:19:55;3.63;;;1.90;;
27576;SDS011;15011;53.380;10.034;2023-07-31T14:24:55;2.00;;;1.80;;
27576;SDS011;15011;53.380;10.034;2023-07-31T14:29:56;1.83;;;1.52;;
27576;SDS011;15011;53.380;10.034;2023-07-31T14:34:57;2.23;;;2.03;;
27576;SDS011;15011;53.380;10.034;2023-07-31T14:39:57;2.83;;;2.40;;
27576;SDS011;15011;53.380;10.034;2023-07-31T14:44:57;3.10;;;2.30;;
27576;SDS011;15011;53.380;10.034;2023-07-31T14:49:58;3.07;;;2.40;;
27576;SDS011;15011;53.380;10.034;2023-07-31T14:54:59;3.35;;;3.03;;
27576;SDS011;15011;53.380;10.034;2023-07-31T15:00:00;2.90;;;2.60;;
27576;SDS011;15011;53.380;10.034;2023-07-31T15:05:01;5.30;;;3.67;;
27576;SDS011;15011;53.380;10.034;2023-07-31T15:10:02;3.65;;;3.03;;
27576;SDS011;15011;53.380;10.034;2023-07-31T15:15:03;4.65;;;3.47;;
27576;SDS011;15011;53.380;10.034;2023-07-31T15:20:04;3.10;;;2.60;;
27576;SDS011;15011;53.380;10.034;2023-07-31T15:25:06;3.15;;;2.38;;
27576;SDS011;15011;53.380;10.034;2023-07-31T15:30:07;3.42;;;2.92;;
27576;SDS011;15011;53.380;10.034;2023-07-31T15:35:08;6.35;;;3.38;;
27576;SDS011;15011;53.380;10.034;2023-07-31T15:40:08;4.65;;;3.80;;
27576;SDS011;15011;53.380;10.034;2023-07-31T15:45:09;3.15;;;2.85;;
27576;SDS011;15011;53.380;10.034;2023-07-31T15:50:10;4.00;;;3.03;;
27576;SDS011;15011;53.380;10.034;2023-07-31T15:55:10;5.03;;;3.77;;
27576;SDS011;15011;53.380;10.034;2023-07-31T16:00:11;8.07;;;4.78;;
27576;SDS011;15011;53.380;10.034;2023-07-31T16:05:12;7.22;;;4.78;;
27576;SDS011;15011;53.380;10.034;2023-07-31T16:10:12;5.87;;;4.23;;
27576;SDS011;15011;53.380;10.034;2023-07-31T16:15:13;7.07;;;5.00;;
27576;SDS011;15011;53.380;10.034;2023-07-31T16:20:13;5.97;;;4.03;;
27576;SDS011;15011;53.380;10.034;2023-07-31T16:25:14;4.07;;;2.97;;
27576;SDS011;15011;53.380;10.034;2023-07-31T16:30:14;6.00;;;3.70;;
27576;SDS011;15011;53.380;10.034;2023-07-31T16:35:15;6.13;;;3.97;;
27576;SDS011;15011;53.380;10.034;2023-07-31T16:40:15;7.90;;;4.55;;
27576;SDS011;15011;53.380;10.034;2023-07-31T16:45:16;6.93;;;4.47;;
27576;SDS011;15011;53.380;10.034;2023-07-31T16:50:16;7.00;;;5.43;;
27576;SDS011;15011;53.380;10.034;2023-07-31T16:55:17;3.90;;;3.40;;
27576;SDS011;15011;53.380;10.034;2023-07-31T17:00:17;3.80;;;3.28;;
27576;SDS011;15011;53.380;10.034;2023-07-31T17:05:18;5.03;;;4.03;;
27576;SDS011;15011;53.380;10.034;2023-07-31T17:10:18;5.60;;;3.57;;
27576;SDS011;15011;53.380;10.034;2023-07-31T17:15:19;6.50;;;3.20;;
27576;SDS011;15011;53.380;10.034;2023-07-31T17:20:19;6.53;;;4.00;;
27576;SDS011;15011;53.380;10.034;2023-07-31T17:25:20;5.77;;;3.63;;
27576;SDS011;15011;53.380;10.034;2023-07-31T17:30:20;5.30;;;4.00;;
27576;SDS011;15011;53.380;10.034;2023-07-31T17:35:20;4.97;;;3.33;;
27576;SDS011;15011;53.380;10.034;2023-07-31T17:40:21;6.03;;;4.30;;
27576;SDS011;15011;53.380;10.034;2023-07-31T17:45:21;4.73;;;3.37;;
27576;SDS011;15011;53.380;10.034;2023-07-31T17:50:22;5.07;;;4.40;;
27576;SDS011;15011;53.380;10.034;2023-07-31T17:55:22;6.38;;;4.15;;
27576;SDS011;15011;53.380;10.034;2023-07-31T18:00:23;4.73;;;3.43;;
27576;SDS011;15011;53.380;10.034;2023-07-31T18:05:23;6.78;;;4.38;;
27576;SDS011;15011;53.380;10.034;2023-07-31T18:10:24;4.95;;;3.60;;
27576;SDS011;15011;53.380;10.034;2023-07-31T18:15:24;6.07;;;3.90;;
27576;SDS011;15011;53.380;10.034;2023-07-31T18:20:25;5.60;;;3.37;;
27576;SDS011;15011;53.380;10.034;2023-07-31T18:25:27;7.80;;;4.63;;
27576;SDS011;15011;53.380;10.034;2023-07-31T18:30:27;6.43;;;4.72;;
27576;SDS011;15011;53.380;10.034;2023-07-31T18:35:28;6.20;;;4.50;;
27576;SDS011;15011;53.380;10.034;2023-07-31T18:40:28;7.35;;;4.45;;
27576;SDS011;15011;53.380;10.034;2023-07-31T18:45:31;6.40;;;4.40;;
27576;SDS011;15011;53.380;10.034;2023-07-31T18:50:32;8.60;;;4.70;;
27576;SDS011;15011;53.380;10.034;2023-07-31T18:55:32;6.30;;;4.57;;
27576;SDS011;15011;53.380;10.034;2023-07-31T19:00:33;5.77;;;3.27;;
27576;SDS011;15011;53.380;10.034;2023-07-31T19:05:33;9.00;;;4.43;;
27576;SDS011;15011;53.380;10.034;2023-07-31T19:10:34;4.83;;;4.33;;
27576;SDS011;15011;53.380;10.034;2023-07-31T19:15:35;7.25;;;4.50;;
27576;SDS011;15011;53.380;10.034;2023-07-31T19:20:35;7.45;;;4.22;;
27576;SDS011;15011;53.380;10.034;2023-07-31T19:25:36;7.23;;;4.70;;
27576;SDS011;15011;53.380;10.034;2023-07-31T19:30:36;5.90;;;4.38;;
27576;SDS011;15011;53.380;10.034;2023-07-31T19:35:37;8.93;;;5.17;;
27576;SDS011;15011;53.380;10.034;2023-07-31T19:40:37;5.13;;;4.63;;
27576;SDS011;15011;53.380;10.034;2023-07-31T19:45:38;7.20;;;5.50;;
27576;SDS011;15011;53.380;10.034;2023-07-31T19:50:38;8.63;;;5.73;;
27576;SDS011;15011;53.380;10.034;2023-07-31T19:55:39;9.13;;;6.23;;
27576;SDS011;15011;53.380;10.034;2023-07-31T20:00:39;9.40;;;6.57;;
27576;SDS011;15011;53.380;10.034;2023-07-31T20:05:39;6.32;;;4.80;;
27576;SDS011;15011;53.380;10.034;2023-07-31T20:10:41;11.30;;;6.78;;
27576;SDS011;15011;53.380;10.034;2023-07-31T20:15:42;10.95;;;6.80;;
27576;SDS011;15011;53.380;10.034;2023-07-31T20:20:42;9.13;;;6.30;;
27576;SDS011;15011;53.380;10.034;2023-07-31T20:25:43;7.17;;;4.90;;
27576;SDS011;15011;53.380;10.034;2023-07-31T20:30:43;5.73;;;4.40;;
27576;SDS011;15011;53.380;10.034;2023-07-31T20:35:45;5.57;;;3.90;;
27576;SDS011;15011;53.380;10.034;2023-07-31T20:40:45;3.83;;;3.42;;
27576;SDS011;15011;53.380;10.034;2023-07-31T20:45:47;2.85;;;2.38;;
27576;SDS011;15011;53.380;10.034;2023-07-31T20:50:47;2.57;;;2.33;;
27576;SDS011;15011;53.380;10.034;2023-07-31T20:55:48;2.70;;;2.17;;
27576;SDS011;15011;53.380;10.034;2023-07-31T21:00:48;3.20;;;2.10;;
27576;SDS011;15011;53.380;10.034;2023-07-31T21:05:49;3.33;;;2.13;;
27576;SDS011;15011;53.380;10.034;2023-07-31T21:10:51;2.40;;;1.88;;
27576;SDS011;15011;53.380;10.034;2023-07-31T21:15:55;2.45;;;1.90;;
27576;SDS011;15011;53.380;10.034;2023-07-31T21:20:57;6.30;;;1.80;;
27576;SDS011;15011;53.380;10.034;2023-07-31T21:25:57;3.90;;;2.27;;
27576;SDS011;15011;53.380;10.034;2023-07-31T21:30:58;2.00;;;1.40;;
27576;SDS011;15011;53.380;10.034;2023-07-31T21:35:58;1.57;;;1.47;;
27576;SDS011;15011;53.380;10.034;2023-07-31T21:40:59;2.63;;;1.80;;
27576;SDS011;15011;53.380;10.034;2023-07-31T21:46:00;3.17;;;1.75;;
27576;SDS011;15011;53.380;10.034;2023-07-31T21:51:00;2.88;;;1.75;;
27576;SDS011;15011;53.380;10.034;2023-07-31T21:56:01;3.23;;;2.27;;
27576;SDS011;15011;53.380;10.034;2023-07-31T22:01:01;3.03;;;2.30;;
27576;SDS011;15011;53.380;10.034;2023-07-31T22:06:02;3.63;;;2.67;;
27576;SDS011;15011;53.380;10.034;2023-07-31T22:11:02;3.40;;;2.40;;
27576;SDS011;15011;53.380;10.034;2023-07-31T22:16:03;3.67;;;2.55;;
27576;SDS011;15011;53.380;10.034;2023-07-31T22:21:03;5.35;;;2.95;;
27576;SDS011;15011;53.380;10.034;2023-07-31T22:26:04;3.97;;;2.40;;
27576;SDS011;15011;53.380;10.034;2023-07-31T22:31:04;3.33;;;2.20;;
27576;SDS011;15011;53.380;10.034;2023-07-31T22:36:05;2.78;;;2.17;;
27576;SDS011;15011;53.380;10.034;2023-07-31T22:41:05;3.40;;;3.00;;
27576;SDS011;15011;53.380;10.034;2023-07-31T22:46:06;5.67;;;3.20;;
27576;SDS011;15011;53.380;10.034;2023-07-31T22:51:06;2.70;;;2.42;;
27576;SDS011;15011;53.380;10.034;2023-07-31T22:56:07;3.80;;;2.40;;
27576;SDS011;15011;53.380;10.034;2023-07-31T23:01:08;4.28;;;2.45;;
27576;SDS011;15011;53.380;10.034;2023-07-31T23:06:09;2.45;;;1.75;;
27576;SDS011;15011;53.380;10.034;2023-07-31T23:11:10;2.60;;;1.93;;
27576;SDS011;15011;53.380;10.034;2023-07-31T23:16:20;2.03;;;1.80;;
27576;SDS011;15011;53.380;10.034;2023-07-31T23:21:20;2.65;;;1.77;;
27576;SDS011;15011;53.380;10.034;2023-07-31T23:26:21;2.83;;;2.17;;
27576;SDS011;15011;53.380;10.034;2023-07-31T23:31:21;1.77;;;1.30;;
27576;SDS011;15011;53.380;10.034;2023-07-31T23:36:21;1.97;;;1.60;;
27576;SDS011;15011;53.380;10.034;2023-07-31T23:41:23;2.47;;;1.50;;
27576;SDS011;15011;53.380;10.034;2023-07-31T23:46:24;6.05;;;1.67;;
27576;SDS011;15011;53.380;10.034;2023-07-31T23:51:24;1.55;;;1.00;;
27576;SDS011;15011;53.380;10.034;2023-07-31T23:56:25;1.38;;;0.98;;
